sensor_id;sensor_type;location;lat;lon;timestamp;temperature;humidity
12413;DHT22;13877;18.896;-99.222;2023-11-21T00:00:58;24.90;1.00
12413;DHT22;13877;18.896;-99.222;2023-11-21T00:03:28;25.00;1.00
12413;DHT22;13877;18.896;-99.222;2023-11-21T00:05:55;24.90;1.00
12413;DHT22;13877;18.896;-99.222;2023-11-21T00:08:22;24.90;1.00
12413;DHT22;13877;18.896;-99.222;2023-11-21T00:10:50;24.90;1.00
12413;DHT22;13877;18.896;-99.222;2023-11-21T00:13:17;24.80;1.00
12413;DHT22;13877;18.896;-99.222;2023-11-21T00:15:45;24.70;1.00
12413;DHT22;13877;18.896;-99.222;2023-11-21T00:18:12;24.70;1.00
12413;DHT22;13877;18.896;-99.222;2023-11-21T00:20:40;24.60;1.00
12413;DHT22;13877;18.896;-99.222;2023-11-21T00:23:08;24.60;1.00
12413;DHT22;13877;18.896;-99.222;2023-11-21T00:25:36;24.60;1.00
12413;DHT22;13877;18.896;-99.222;2023-11-21T00:28:04;24.60;1.00
12413;DHT22;13877;18.896;-99.222;2023-11-21T00:30:32;24.50;1.00
12413;DHT22;13877;18.896;-99.222;2023-11-21T00:32:59;24.60;1.00
12413;DHT22;13877;18.896;-99.222;2023-11-21T00:35:27;24.60;1.00
12413;DHT22;13877;18.896;-99.222;2023-11-21T00:37:54;24.60;1.00
12413;DHT22;13877;18.896;-99.222;2023-11-21T00:40:21;24.40;1.00
12413;DHT22;13877;18.896;-99.222;2023-11-21T00:42:48;24.30;1.00
12413;DHT22;13877;18.896;-99.222;2023-11-21T00:45:16;24.20;1.00
12413;DHT22;13877;18.896;-99.222;2023-11-21T00:47:43;24.10;1.00
12413;DHT22;13877;18.896;-99.222;2023-11-21T00:50:10;24.00;1.00
12413;DHT22;13877;18.896;-99.222;2023-11-21T00:52:38;24.00;1.00
12413;DHT22;13877;18.896;-99.222;2023-11-21T00:55:06;24.00;1.00
12413;DHT22;13877;18.896;-99.222;2023-11-21T00:57:34;23.90;1.00
12413;DHT22;13877;18.896;-99.222;2023-11-21T01:00:02;23.90;1.00
12413;DHT22;13877;18.896;-99.222;2023-11-21T01:02:35;23.90;1.00
12413;DHT22;13877;18.896;-99.222;2023-11-21T01:05:02;23.80;1.00
12413;DHT22;13877;18.896;-99.222;2023-11-21T01:07:30;23.90;1.00
12413;DHT22;13877;18.896;-99.222;2023-11-21T01:10:00;23.90;1.00
12413;DHT22;13877;18.896;-99.222;2023-11-21T01:12:27;24.00;1.00
12413;DHT22;13877;18.896;-99.222;2023-11-21T01:14:55;24.00;1.00
12413;DHT22;13877;18.896;-99.222;2023-11-21T01:17:23;24.00;1.00
12413;DHT22;13877;18.896;-99.222;2023-11-21T01:19:51;24.00;1.00
12413;DHT22;13877;18.896;-99.222;2023-11-21T01:22:19;23.90;1.00
12413;DHT22;13877;18.896;-99.222;2023-11-21T01:24:53;23.90;1.00
12413;DHT22;13877;18.896;-99.222;2023-11-21T01:27:21;23.90;1.00
12413;DHT22;13877;18.896;-99.222;2023-11-21T01:29:48;23.80;1.00
12413;DHT22;13877;18.896;-99.222;2023-11-21T01:32:15;23.80;1.00
12413;DHT22;13877;18.896;-99.222;2023-11-21T01:34:44;23.70;1.00
12413;DHT22;13877;18.896;-99.222;2023-11-21T01:37:11;23.60;1.00
12413;DHT22;13877;18.896;-99.222;2023-11-21T01:39:39;23.60;1.00
12413;DHT22;13877;18.896;-99.222;2023-11-21T01:42:07;23.40;1.00
12413;DHT22;13877;18.896;-99.222;2023-11-21T01:44:34;23.20;1.00
12413;DHT22;13877;18.896;-99.222;2023-11-21T01:47:02;23.00;1.00
12413;DHT22;13877;18.896;-99.222;2023-11-21T01:49:33;22.80;1.00
12413;DHT22;13877;18.896;-99.222;2023-11-21T01:52:00;22.80;1.00
12413;DHT22;13877;18.896;-99.222;2023-11-21T01:54:29;22.80;1.00
12413;DHT22;13877;18.896;-99.222;2023-11-21T01:57:01;22.80;1.00
12413;DHT22;13877;18.896;-99.222;2023-11-21T01:59:37;22.80;1.00
12413;DHT22;13877;18.896;-99.222;2023-11-21T02:02:08;22.70;1.00
12413;DHT22;13877;18.896;-99.222;2023-11-21T02:04:38;22.60;1.00
12413;DHT22;13877;18.896;-99.222;2023-11-21T02:07:05;22.70;1.00
12413;DHT22;13877;18.896;-99.222;2023-11-21T02:09:33;22.70;1.00
12413;DHT22;13877;18.896;-99.222;2023-11-21T02:12:02;22.80;1.00
12413;DHT22;13877;18.896;-99.222;2023-11-21T02:14:29;22.70;1.00
12413;DHT22;13877;18.896;-99.222;2023-11-21T02:16:57;22.60;1.00
12413;DHT22;13877;18.896;-99.222;2023-11-21T02:19:25;22.50;1.00
12413;DHT22;13877;18.896;-99.222;2023-11-21T02:21:53;22.40;1.00
12413;DHT22;13877;18.896;-99.222;2023-11-21T02:24:24;22.50;1.00
12413;DHT22;13877;18.896;-99.222;2023-11-21T02:26:52;22.50;1.00
12413;DHT22;13877;18.896;-99.222;2023-11-21T02:29:19;22.50;1.00
12413;DHT22;13877;18.896;-99.222;2023-11-21T02:31:55;22.50;1.00
12413;DHT22;13877;18.896;-99.222;2023-11-21T02:34:23;22.50;1.00
12413;DHT22;13877;18.896;-99.222;2023-11-21T02:36:51;22.50;1.00
12413;DHT22;13877;18.896;-99.222;2023-11-21T02:39:19;22.50;1.00
12413;DHT22;13877;18.896;-99.222;2023-11-21T02:41:49;22.50;1.00
12413;DHT22;13877;18.896;-99.222;2023-11-21T02:44:17;22.60;1.00
12413;DHT22;13877;18.896;-99.222;2023-11-21T02:46:44;22.60;1.00
12413;DHT22;13877;18.896;-99.222;2023-11-21T02:49:11;22.60;1.00
12413;DHT22;13877;18.896;-99.222;2023-11-21T02:51:38;22.60;1.00
12413;DHT22;13877;18.896;-99.222;2023-11-21T02:54:08;22.60;1.00
12413;DHT22;13877;18.896;-99.222;2023-11-21T02:56:35;22.50;1.00
12413;DHT22;13877;18.896;-99.222;2023-11-21T02:59:03;22.60;1.00
12413;DHT22;13877;18.896;-99.222;2023-11-21T03:01:31;22.60;1.00
12413;DHT22;13877;18.896;-99.222;2023-11-21T03:03:58;22.70;1.00
12413;DHT22;13877;18.896;-99.222;2023-11-21T03:06:26;22.70;1.00
12413;DHT22;13877;18.896;-99.222;2023-11-21T03:08:59;22.70;1.00
12413;DHT22;13877;18.896;-99.222;2023-11-21T03:11:26;22.60;1.00
12413;DHT22;13877;18.896;-99.222;2023-11-21T03:13:54;22.50;1.00
12413;DHT22;13877;18.896;-99.222;2023-11-21T03:16:21;22.50;1.00
12413;DHT22;13877;18.896;-99.222;2023-11-21T03:18:49;22.40;1.00
12413;DHT22;13877;18.896;-99.222;2023-11-21T03:21:17;22.40;1.00
12413;DHT22;13877;18.896;-99.222;2023-11-21T03:23:44;22.30;1.00
12413;DHT22;13877;18.896;-99.222;2023-11-21T03:26:14;22.40;1.00
12413;DHT22;13877;18.896;-99.222;2023-11-21T03:28:43;22.30;1.00
12413;DHT22;13877;18.896;-99.222;2023-11-21T03:31:10;22.30;1.00
12413;DHT22;13877;18.896;-99.222;2023-11-21T03:33:38;22.30;1.00
12413;DHT22;13877;18.896;-99.222;2023-11-21T03:36:05;22.20;1.00
12413;DHT22;13877;18.896;-99.222;2023-11-21T03:38:34;22.20;1.00
12413;DHT22;13877;18.896;-99.222;2023-11-21T03:41:01;22.20;1.00
12413;DHT22;13877;18.896;-99.222;2023-11-21T03:43:29;22.20;1.00
12413;DHT22;13877;18.896;-99.222;2023-11-21T03:45:56;22.20;1.00
12413;DHT22;13877;18.896;-99.222;2023-11-21T03:48:23;22.10;1.00
12413;DHT22;13877;18.896;-99.222;2023-11-21T03:50:50;22.10;1.00
12413;DHT22;13877;18.896;-99.222;2023-11-21T03:53:18;22.00;1.00
12413;DHT22;13877;18.896;-99.222;2023-11-21T03:55:45;22.00;1.00
12413;DHT22;13877;18.896;-99.222;2023-11-21T03:58:12;22.00;1.00
12413;DHT22;13877;18.896;-99.222;2023-11-21T04:00:40;22.00;1.00
12413;DHT22;13877;18.896;-99.222;2023-11-21T04:03:07;22.00;1.00
12413;DHT22;13877;18.896;-99.222;2023-11-21T04:05:34;21.90;1.00
12413;DHT22;13877;18.896;-99.222;2023-11-21T04:08:01;22.00;1.00
12413;DHT22;13877;18.896;-99.222;2023-11-21T04:10:28;22.00;1.00
12413;DHT22;13877;18.896;-99.222;2023-11-21T04:12:55;22.00;1.00
12413;DHT22;13877;18.896;-99.222;2023-11-21T04:15:23;22.00;1.00
12413;DHT22;13877;18.896;-99.222;2023-11-21T04:17:50;22.00;1.00
12413;DHT22;13877;18.896;-99.222;2023-11-21T04:20:17;22.00;1.00
12413;DHT22;13877;18.896;-99.222;2023-11-21T04:22:44;21.90;1.00
12413;DHT22;13877;18.896;-99.222;2023-11-21T04:25:14;21.90;1.00
12413;DHT22;13877;18.896;-99.222;2023-11-21T04:27:42;21.90;1.00
12413;DHT22;13877;18.896;-99.222;2023-11-21T04:30:14;21.90;1.00
12413;DHT22;13877;18.896;-99.222;2023-11-21T04:32:42;21.90;1.00
12413;DHT22;13877;18.896;-99.222;2023-11-21T04:35:10;21.90;1.00
12413;DHT22;13877;18.896;-99.222;2023-11-21T04:37:38;21.80;1.00
12413;DHT22;13877;18.896;-99.222;2023-11-21T04:40:05;21.80;1.00
12413;DHT22;13877;18.896;-99.222;2023-11-21T04:42:34;21.80;1.00
12413;DHT22;13877;18.896;-99.222;2023-11-21T04:45:04;21.80;1.00
12413;DHT22;13877;18.896;-99.222;2023-11-21T04:47:36;21.90;1.00
12413;DHT22;13877;18.896;-99.222;2023-11-21T04:50:03;21.90;1.00
12413;DHT22;13877;18.896;-99.222;2023-11-21T04:52:31;21.80;1.00
12413;DHT22;13877;18.896;-99.222;2023-11-21T04:54:59;21.90;1.00
12413;DHT22;13877;18.896;-99.222;2023-11-21T04:57:28;21.80;1.00
12413;DHT22;13877;18.896;-99.222;2023-11-21T04:59:55;21.80;1.00
12413;DHT22;13877;18.896;-99.222;2023-11-21T05:02:22;21.60;1.00
12413;DHT22;13877;18.896;-99.222;2023-11-21T05:04:50;21.50;1.00
12413;DHT22;13877;18.896;-99.222;2023-11-21T05:07:17;21.50;1.00
12413;DHT22;13877;18.896;-99.222;2023-11-21T05:09:44;21.40;1.00
12413;DHT22;13877;18.896;-99.222;2023-11-21T05:12:13;21.40;1.00
12413;DHT22;13877;18.896;-99.222;2023-11-21T05:14:41;21.40;1.00
12413;DHT22;13877;18.896;-99.222;2023-11-21T05:17:08;21.30;1.00
12413;DHT22;13877;18.896;-99.222;2023-11-21T05:19:35;21.20;1.00
12413;DHT22;13877;18.896;-99.222;2023-11-21T05:22:03;21.30;1.00
12413;DHT22;13877;18.896;-99.222;2023-11-21T05:24:32;21.40;1.00
12413;DHT22;13877;18.896;-99.222;2023-11-21T05:27:00;21.40;1.00
12413;DHT22;13877;18.896;-99.222;2023-11-21T05:29:27;21.30;1.00
12413;DHT22;13877;18.896;-99.222;2023-11-21T05:31:55;21.10;1.00
12413;DHT22;13877;18.896;-99.222;2023-11-21T05:34:22;21.00;1.00
12413;DHT22;13877;18.896;-99.222;2023-11-21T05:36:51;20.70;1.00
12413;DHT22;13877;18.896;-99.222;2023-11-21T05:39:18;20.60;1.00
12413;DHT22;13877;18.896;-99.222;2023-11-21T05:41:46;20.50;1.00
12413;DHT22;13877;18.896;-99.222;2023-11-21T05:44:13;20.50;1.00
12413;DHT22;13877;18.896;-99.222;2023-11-21T05:46:42;20.60;1.00
12413;DHT22;13877;18.896;-99.222;2023-11-21T05:49:09;20.80;1.00
12413;DHT22;13877;18.896;-99.222;2023-11-21T05:51:37;21.00;1.00
12413;DHT22;13877;18.896;-99.222;2023-11-21T05:54:05;21.00;1.00
12413;DHT22;13877;18.896;-99.222;2023-11-21T05:56:32;21.10;1.00
12413;DHT22;13877;18.896;-99.222;2023-11-21T05:58:59;21.10;1.00
12413;DHT22;13877;18.896;-99.222;2023-11-21T06:01:27;21.20;1.00
12413;DHT22;13877;18.896;-99.222;2023-11-21T06:03:54;21.00;1.00
12413;DHT22;13877;18.896;-99.222;2023-11-21T06:06:22;21.00;1.00
12413;DHT22;13877;18.896;-99.222;2023-11-21T06:08:51;21.00;1.00
12413;DHT22;13877;18.896;-99.222;2023-11-21T06:11:18;21.00;1.00
12413;DHT22;13877;18.896;-99.222;2023-11-21T06:13:45;20.90;1.00
12413;DHT22;13877;18.896;-99.222;2023-11-21T06:16:12;20.80;1.00
12413;DHT22;13877;18.896;-99.222;2023-11-21T06:18:42;20.70;1.00
12413;DHT22;13877;18.896;-99.222;2023-11-21T06:21:10;20.70;1.00
12413;DHT22;13877;18.896;-99.222;2023-11-21T06:23:37;20.60;1.00
12413;DHT22;13877;18.896;-99.222;2023-11-21T06:26:05;20.50;1.00
12413;DHT22;13877;18.896;-99.222;2023-11-21T06:28:32;20.40;1.00
12413;DHT22;13877;18.896;-99.222;2023-11-21T06:31:00;20.30;1.00
12413;DHT22;13877;18.896;-99.222;2023-11-21T06:33:32;20.60;1.00
12413;DHT22;13877;18.896;-99.222;2023-11-21T06:36:00;20.70;1.00
12413;DHT22;13877;18.896;-99.222;2023-11-21T06:38:31;20.50;1.00
12413;DHT22;13877;18.896;-99.222;2023-11-21T06:40:58;20.50;1.00
12413;DHT22;13877;18.896;-99.222;2023-11-21T06:43:29;20.40;1.00
12413;DHT22;13877;18.896;-99.222;2023-11-21T06:45:58;20.50;1.00
12413;DHT22;13877;18.896;-99.222;2023-11-21T06:48:25;20.60;1.00
12413;DHT22;13877;18.896;-99.222;2023-11-21T06:50:52;20.50;1.00
12413;DHT22;13877;18.896;-99.222;2023-11-21T06:53:20;20.40;1.00
12413;DHT22;13877;18.896;-99.222;2023-11-21T06:55:47;20.20;1.00
12413;DHT22;13877;18.896;-99.222;2023-11-21T06:58:15;20.20;1.00
12413;DHT22;13877;18.896;-99.222;2023-11-21T07:00:42;20.10;1.00
12413;DHT22;13877;18.896;-99.222;2023-11-21T07:03:13;20.20;1.00
12413;DHT22;13877;18.896;-99.222;2023-11-21T07:05:40;20.00;1.00
12413;DHT22;13877;18.896;-99.222;2023-11-21T07:08:08;19.80;1.00
12413;DHT22;13877;18.896;-99.222;2023-11-21T07:10:36;19.70;1.00
12413;DHT22;13877;18.896;-99.222;2023-11-21T07:13:03;19.70;1.00
12413;DHT22;13877;18.896;-99.222;2023-11-21T07:15:30;19.80;1.00
12413;DHT22;13877;18.896;-99.222;2023-11-21T07:17:58;19.70;1.00
12413;DHT22;13877;18.896;-99.222;2023-11-21T07:20:25;19.60;1.00
12413;DHT22;13877;18.896;-99.222;2023-11-21T07:22:53;19.60;1.00
12413;DHT22;13877;18.896;-99.222;2023-11-21T07:25:20;19.50;1.00
12413;DHT22;13877;18.896;-99.222;2023-11-21T07:27:49;19.40;1.00
12413;DHT22;13877;18.896;-99.222;2023-11-21T07:30:16;19.50;1.00
12413;DHT22;13877;18.896;-99.222;2023-11-21T07:32:44;19.80;1.00
12413;DHT22;13877;18.896;-99.222;2023-11-21T07:35:11;19.70;1.00
12413;DHT22;13877;18.896;-99.222;2023-11-21T07:37:38;19.60;1.00
12413;DHT22;13877;18.896;-99.222;2023-11-21T07:40:06;19.60;1.00
12413;DHT22;13877;18.896;-99.222;2023-11-21T07:42:35;19.70;1.00
12413;DHT22;13877;18.896;-99.222;2023-11-21T07:45:02;19.50;1.00
12413;DHT22;13877;18.896;-99.222;2023-11-21T07:47:29;19.50;1.00
12413;DHT22;13877;18.896;-99.222;2023-11-21T07:49:56;19.50;1.00
12413;DHT22;13877;18.896;-99.222;2023-11-21T07:52:24;19.40;1.00
12413;DHT22;13877;18.896;-99.222;2023-11-21T07:54:51;19.50;1.00
12413;DHT22;13877;18.896;-99.222;2023-11-21T07:57:18;19.50;1.00
12413;DHT22;13877;18.896;-99.222;2023-11-21T07:59:45;19.60;1.00
12413;DHT22;13877;18.896;-99.222;2023-11-21T08:02:12;19.40;1.00
12413;DHT22;13877;18.896;-99.222;2023-11-21T08:04:39;19.30;1.00
12413;DHT22;13877;18.896;-99.222;2023-11-21T08:07:07;19.30;1.00
12413;DHT22;13877;18.896;-99.222;2023-11-21T08:09:34;19.20;1.00
12413;DHT22;13877;18.896;-99.222;2023-11-21T08:12:01;19.30;1.00
12413;DHT22;13877;18.896;-99.222;2023-11-21T08:14:29;19.50;1.00
12413;DHT22;13877;18.896;-99.222;2023-11-21T08:16:56;19.70;1.00
12413;DHT22;13877;18.896;-99.222;2023-11-21T08:19:24;19.90;1.00
12413;DHT22;13877;18.896;-99.222;2023-11-21T08:21:52;19.90;1.00
12413;DHT22;13877;18.896;-99.222;2023-11-21T08:24:21;20.00;1.00
12413;DHT22;13877;18.896;-99.222;2023-11-21T08:26:49;20.00;1.00
12413;DHT22;13877;18.896;-99.222;2023-11-21T08:29:17;20.00;1.00
12413;DHT22;13877;18.896;-99.222;2023-11-21T08:31:45;20.00;1.00
12413;DHT22;13877;18.896;-99.222;2023-11-21T08:34:13;20.10;1.00
12413;DHT22;13877;18.896;-99.222;2023-11-21T08:36:43;20.10;1.00
12413;DHT22;13877;18.896;-99.222;2023-11-21T08:39:10;20.00;1.00
12413;DHT22;13877;18.896;-99.222;2023-11-21T08:41:37;20.00;1.00
12413;DHT22;13877;18.896;-99.222;2023-11-21T08:44:05;20.00;1.00
12413;DHT22;13877;18.896;-99.222;2023-11-21T08:46:36;20.10;1.00
12413;DHT22;13877;18.896;-99.222;2023-11-21T08:49:04;20.10;1.00
12413;DHT22;13877;18.896;-99.222;2023-11-21T08:51:32;20.10;1.00
12413;DHT22;13877;18.896;-99.222;2023-11-21T08:53:59;20.10;1.00
12413;DHT22;13877;18.896;-99.222;2023-11-21T08:56:31;20.20;1.00
12413;DHT22;13877;18.896;-99.222;2023-11-21T08:58:58;20.20;1.00
12413;DHT22;13877;18.896;-99.222;2023-11-21T09:01:27;20.10;1.00
12413;DHT22;13877;18.896;-99.222;2023-11-21T09:03:54;20.10;1.00
12413;DHT22;13877;18.896;-99.222;2023-11-21T09:06:21;20.10;1.00
12413;DHT22;13877;18.896;-99.222;2023-11-21T09:08:49;20.10;1.00
12413;DHT22;13877;18.896;-99.222;2023-11-21T09:11:16;20.00;1.00
12413;DHT22;13877;18.896;-99.222;2023-11-21T09:13:43;20.00;1.00
12413;DHT22;13877;18.896;-99.222;2023-11-21T09:16:11;20.00;1.00
12413;DHT22;13877;18.896;-99.222;2023-11-21T09:18:38;20.00;1.00
12413;DHT22;13877;18.896;-99.222;2023-11-21T09:21:06;20.00;1.00
12413;DHT22;13877;18.896;-99.222;2023-11-21T09:23:33;19.90;1.00
12413;DHT22;13877;18.896;-99.222;2023-11-21T09:26:00;19.70;1.00
12413;DHT22;13877;18.896;-99.222;2023-11-21T09:28:28;19.70;1.00
12413;DHT22;13877;18.896;-99.222;2023-11-21T09:30:55;19.70;1.00
12413;DHT22;13877;18.896;-99.222;2023-11-21T09:33:22;19.60;1.00
12413;DHT22;13877;18.896;-99.222;2023-11-21T09:35:51;19.60;1.00
12413;DHT22;13877;18.896;-99.222;2023-11-21T09:38:19;19.70;1.00
12413;DHT22;13877;18.896;-99.222;2023-11-21T09:40:46;19.70;1.00
12413;DHT22;13877;18.896;-99.222;2023-11-21T09:43:17;19.70;1.00
12413;DHT22;13877;18.896;-99.222;2023-11-21T09:45:54;19.60;1.00
12413;DHT22;13877;18.896;-99.222;2023-11-21T09:48:24;19.40;1.00
12413;DHT22;13877;18.896;-99.222;2023-11-21T09:50:54;19.30;1.00
12413;DHT22;13877;18.896;-99.222;2023-11-21T09:53:22;19.10;1.00
12413;DHT22;13877;18.896;-99.222;2023-11-21T09:55:52;19.00;1.00
12413;DHT22;13877;18.896;-99.222;2023-11-21T09:58:20;18.90;1.00
12413;DHT22;13877;18.896;-99.222;2023-11-21T10:00:50;18.80;1.00
12413;DHT22;13877;18.896;-99.222;2023-11-21T10:03:19;18.80;1.00
12413;DHT22;13877;18.896;-99.222;2023-11-21T10:05:50;18.80;1.00
12413;DHT22;13877;18.896;-99.222;2023-11-21T10:08:17;18.70;1.00
12413;DHT22;13877;18.896;-99.222;2023-11-21T10:10:49;18.70;1.00
12413;DHT22;13877;18.896;-99.222;2023-11-21T10:13:18;18.70;1.00
12413;DHT22;13877;18.896;-99.222;2023-11-21T10:15:50;18.70;1.00
12413;DHT22;13877;18.896;-99.222;2023-11-21T10:18:17;18.60;1.00
12413;DHT22;13877;18.896;-99.222;2023-11-21T10:20:45;18.60;1.00
12413;DHT22;13877;18.896;-99.222;2023-11-21T10:23:22;18.70;1.00
12413;DHT22;13877;18.896;-99.222;2023-11-21T10:25:55;18.60;1.00
12413;DHT22;13877;18.896;-99.222;2023-11-21T10:28:22;18.60;1.00
12413;DHT22;13877;18.896;-99.222;2023-11-21T10:30:49;18.50;1.00
12413;DHT22;13877;18.896;-99.222;2023-11-21T10:33:17;18.50;1.00
12413;DHT22;13877;18.896;-99.222;2023-11-21T10:35:53;18.60;1.00
12413;DHT22;13877;18.896;-99.222;2023-11-21T10:38:22;18.70;1.00
12413;DHT22;13877;18.896;-99.222;2023-11-21T10:40:51;18.70;1.00
12413;DHT22;13877;18.896;-99.222;2023-11-21T10:43:25;18.70;1.00
12413;DHT22;13877;18.896;-99.222;2023-11-21T10:45:53;18.70;1.00
12413;DHT22;13877;18.896;-99.222;2023-11-21T10:48:25;18.60;1.00
12413;DHT22;13877;18.896;-99.222;2023-11-21T10:50:53;18.60;1.00
12413;DHT22;13877;18.896;-99.222;2023-11-21T10:53:23;18.60;1.00
12413;DHT22;13877;18.896;-99.222;2023-11-21T10:56:05;18.70;1.00
12413;DHT22;13877;18.896;-99.222;2023-11-21T10:58:44;18.80;1.00
12413;DHT22;13877;18.896;-99.222;2023-11-21T11:01:11;18.60;1.00
12413;DHT22;13877;18.896;-99.222;2023-11-21T11:03:41;18.50;1.00
12413;DHT22;13877;18.896;-99.222;2023-11-21T11:06:09;18.40;1.00
12413;DHT22;13877;18.896;-99.222;2023-11-21T11:08:38;18.30;1.00
12413;DHT22;13877;18.896;-99.222;2023-11-21T11:11:06;18.30;1.00
12413;DHT22;13877;18.896;-99.222;2023-11-21T11:13:34;18.40;10.60
12413;DHT22;13877;18.896;-99.222;2023-11-21T11:16:04;18.50;7.40
12413;DHT22;13877;18.896;-99.222;2023-11-21T11:18:34;18.50;1.50
12413;DHT22;13877;18.896;-99.222;2023-11-21T11:30:20;18.30;94.40
12413;DHT22;13877;18.896;-99.222;2023-11-21T11:38:48;18.30;99.90
12413;DHT22;13877;18.896;-99.222;2023-11-21T11:41:30;18.40;99.90
12413;DHT22;13877;18.896;-99.222;2023-11-21T11:44:01;18.40;97.70
12413;DHT22;13877;18.896;-99.222;2023-11-21T11:46:44;18.60;91.50
12413;DHT22;13877;18.896;-99.222;2023-11-21T11:49:24;18.50;45.70
12413;DHT22;13877;18.896;-99.222;2023-11-21T11:55:00;18.30;86.60
12413;DHT22;13877;18.896;-99.222;2023-11-21T11:57:30;18.30;93.80
12413;DHT22;13877;18.896;-99.222;2023-11-21T12:00:12;18.20;99.90
12413;DHT22;13877;18.896;-99.222;2023-11-21T12:02:45;18.00;99.90
12413;DHT22;13877;18.896;-99.222;2023-11-21T12:05:14;17.80;99.90
12413;DHT22;13877;18.896;-99.222;2023-11-21T12:10:18;17.80;1.00
12413;DHT22;13877;18.896;-99.222;2023-11-21T12:12:48;17.80;1.00
12413;DHT22;13877;18.896;-99.222;2023-11-21T12:15:16;17.90;1.00
12413;DHT22;13877;18.896;-99.222;2023-11-21T12:17:46;17.80;99.90
12413;DHT22;13877;18.896;-99.222;2023-11-21T12:20:13;17.80;1.00
12413;DHT22;13877;18.896;-99.222;2023-11-21T12:22:55;17.80;1.00
12413;DHT22;13877;18.896;-99.222;2023-11-21T12:25:24;17.80;1.00
12413;DHT22;13877;18.896;-99.222;2023-11-21T12:27:54;17.80;1.00
12413;DHT22;13877;18.896;-99.222;2023-11-21T12:30:23;17.80;1.00
12413;DHT22;13877;18.896;-99.222;2023-11-21T12:32:52;17.80;1.00
12413;DHT22;13877;18.896;-99.222;2023-11-21T12:35:21;17.80;1.00
12413;DHT22;13877;18.896;-99.222;2023-11-21T12:37:49;17.80;99.90
12413;DHT22;13877;18.896;-99.222;2023-11-21T12:40:17;17.80;1.00
12413;DHT22;13877;18.896;-99.222;2023-11-21T12:42:51;17.90;99.90
12413;DHT22;13877;18.896;-99.222;2023-11-21T12:45:28;17.90;1.00
12413;DHT22;13877;18.896;-99.222;2023-11-21T12:48:04;18.00;1.00
12413;DHT22;13877;18.896;-99.222;2023-11-21T12:50:35;18.00;99.90
12413;DHT22;13877;18.896;-99.222;2023-11-21T12:53:08;18.00;99.90
12413;DHT22;13877;18.896;-99.222;2023-11-21T12:55:36;18.00;1.00
12413;DHT22;13877;18.896;-99.222;2023-11-21T12:58:08;18.00;99.90
12413;DHT22;13877;18.896;-99.222;2023-11-21T13:00:46;18.00;99.90
12413;DHT22;13877;18.896;-99.222;2023-11-21T13:03:34;17.80;99.90
12413;DHT22;13877;18.896;-99.222;2023-11-21T13:06:04;17.70;1.00
12413;DHT22;13877;18.896;-99.222;2023-11-21T13:08:31;17.70;1.00
12413;DHT22;13877;18.896;-99.222;2023-11-21T13:11:00;17.70;1.00
12413;DHT22;13877;18.896;-99.222;2023-11-21T13:13:30;17.70;1.00
12413;DHT22;13877;18.896;-99.222;2023-11-21T13:16:02;17.70;1.00
12413;DHT22;13877;18.896;-99.222;2023-11-21T13:18:32;17.80;1.00
12413;DHT22;13877;18.896;-99.222;2023-11-21T13:21:03;18.00;1.00
12413;DHT22;13877;18.896;-99.222;2023-11-21T13:23:36;18.20;1.00
12413;DHT22;13877;18.896;-99.222;2023-11-21T13:26:04;18.40;1.00
12413;DHT22;13877;18.896;-99.222;2023-11-21T13:28:35;18.70;99.90
12413;DHT22;13877;18.896;-99.222;2023-11-21T13:31:04;18.90;99.90
12413;DHT22;13877;18.896;-99.222;2023-11-21T13:34:05;19.10;99.90
12413;DHT22;13877;18.896;-99.222;2023-11-21T13:36:35;19.40;99.90
12413;DHT22;13877;18.896;-99.222;2023-11-21T13:39:02;19.60;99.90
12413;DHT22;13877;18.896;-99.222;2023-11-21T13:41:35;19.90;99.90
12413;DHT22;13877;18.896;-99.222;2023-11-21T13:44:05;20.30;99.90
12413;DHT22;13877;18.896;-99.222;2023-11-21T13:47:07;20.70;1.00
12413;DHT22;13877;18.896;-99.222;2023-11-21T13:49:34;21.10;1.00
12413;DHT22;13877;18.896;-99.222;2023-11-21T13:52:03;21.30;1.00
12413;DHT22;13877;18.896;-99.222;2023-11-21T13:54:30;21.50;1.00
12413;DHT22;13877;18.896;-99.222;2023-11-21T13:56:58;21.60;1.00
12413;DHT22;13877;18.896;-99.222;2023-11-21T13:59:26;22.00;1.00
12413;DHT22;13877;18.896;-99.222;2023-11-21T14:01:57;22.10;1.00
12413;DHT22;13877;18.896;-99.222;2023-11-21T14:04:39;21.80;1.00
12413;DHT22;13877;18.896;-99.222;2023-11-21T14:07:20;21.80;1.00
12413;DHT22;13877;18.896;-99.222;2023-11-21T14:10:03;21.50;1.00
12413;DHT22;13877;18.896;-99.222;2023-11-21T14:12:31;21.50;1.00
12413;DHT22;13877;18.896;-99.222;2023-11-21T14:15:01;21.50;1.00
12413;DHT22;13877;18.896;-99.222;2023-11-21T14:17:31;21.50;1.00
12413;DHT22;13877;18.896;-99.222;2023-11-21T14:19:59;21.60;1.00
12413;DHT22;13877;18.896;-99.222;2023-11-21T14:22:28;21.90;1.00
12413;DHT22;13877;18.896;-99.222;2023-11-21T14:24:58;22.30;1.00
12413;DHT22;13877;18.896;-99.222;2023-11-21T14:27:30;22.80;1.00
12413;DHT22;13877;18.896;-99.222;2023-11-21T14:29:59;23.30;1.00
12413;DHT22;13877;18.896;-99.222;2023-11-21T14:32:27;23.20;1.00
12413;DHT22;13877;18.896;-99.222;2023-11-21T14:34:54;23.20;1.00
12413;DHT22;13877;18.896;-99.222;2023-11-21T14:37:21;23.40;1.00
12413;DHT22;13877;18.896;-99.222;2023-11-21T14:39:48;23.30;1.00
12413;DHT22;13877;18.896;-99.222;2023-11-21T14:42:16;23.20;1.00
12413;DHT22;13877;18.896;-99.222;2023-11-21T14:44:51;23.00;1.00
12413;DHT22;13877;18.896;-99.222;2023-11-21T14:47:18;23.10;1.00
12413;DHT22;13877;18.896;-99.222;2023-11-21T14:49:51;23.50;1.00
12413;DHT22;13877;18.896;-99.222;2023-11-21T14:52:23;23.60;1.00
12413;DHT22;13877;18.896;-99.222;2023-11-21T14:55:01;23.70;1.00
12413;DHT22;13877;18.896;-99.222;2023-11-21T14:57:51;23.90;1.00
12413;DHT22;13877;18.896;-99.222;2023-11-21T15:00:19;24.00;1.00
12413;DHT22;13877;18.896;-99.222;2023-11-21T15:03:05;24.40;1.00
12413;DHT22;13877;18.896;-99.222;2023-11-21T15:05:33;25.00;1.00
12413;DHT22;13877;18.896;-99.222;2023-11-21T15:08:01;25.30;1.00
12413;DHT22;13877;18.896;-99.222;2023-11-21T15:10:48;25.20;1.00
12413;DHT22;13877;18.896;-99.222;2023-11-21T15:13:20;24.80;1.00
12413;DHT22;13877;18.896;-99.222;2023-11-21T15:15:53;24.00;1.00
12413;DHT22;13877;18.896;-99.222;2023-11-21T15:18:22;24.60;1.00
12413;DHT22;13877;18.896;-99.222;2023-11-21T15:20:51;24.90;1.00
12413;DHT22;13877;18.896;-99.222;2023-11-21T15:23:18;25.20;1.00
12413;DHT22;13877;18.896;-99.222;2023-11-21T15:25:46;25.20;1.00
12413;DHT22;13877;18.896;-99.222;2023-11-21T15:28:13;25.80;1.00
12413;DHT22;13877;18.896;-99.222;2023-11-21T15:30:40;26.40;1.00
12413;DHT22;13877;18.896;-99.222;2023-11-21T15:33:07;26.60;1.00
12413;DHT22;13877;18.896;-99.222;2023-11-21T15:35:37;26.10;1.00
12413;DHT22;13877;18.896;-99.222;2023-11-21T15:38:07;25.90;1.00
12413;DHT22;13877;18.896;-99.222;2023-11-21T15:40:35;25.90;1.00
12413;DHT22;13877;18.896;-99.222;2023-11-21T15:43:02;26.50;1.00
12413;DHT22;13877;18.896;-99.222;2023-11-21T15:45:33;26.90;1.00
12413;DHT22;13877;18.896;-99.222;2023-11-21T15:48:00;27.10;1.00